sensor_id;sensor_type;location;lat;lon;timestamp;P1;durP1;ratioP1;P2;durP2;ratioP2
50104;SDS011;47690;39.202;-77.198;2022-12-07T00:01:57;5.32;;;4.05;;
50104;SDS011;47690;39.202;-77.198;2022-12-07T00:04:27;4.95;;;3.90;;
50104;SDS011;47690;39.202;-77.198;2022-12-07T00:06:56;4.75;;;4.20;;
50104;SDS011;47690;39.202;-77.198;2022-12-07T00:09:25;5.20;;;4.18;;
50104;SDS011;47690;39.202;-77.198;2022-12-07T00:11:56;4.90;;;4.15;;
50104;SDS011;47690;39.202;-77.198;2022-12-07T00:14:25;5.70;;;4.55;;
50104;SDS011;47690;39.202;-77.198;2022-12-07T00:16:57;4.78;;;3.90;;
50104;SDS011;47690;39.202;-77.198;2022-12-07T00:19:27;5.35;;;4.15;;
50104;SDS011;47690;39.202;-77.198;2022-12-07T00:21:56;5.88;;;4.35;;
50104;SDS011;47690;39.202;-77.198;2022-12-07T00:24:25;5.53;;;4.00;;
50104;SDS011;47690;39.202;-77.198;2022-12-07T00:26:56;5.28;;;4.22;;
50104;SDS011;47690;39.202;-77.198;2022-12-07T00:29:25;5.40;;;4.38;;
50104;SDS011;47690;39.202;-77.198;2022-12-07T00:31:57;5.35;;;4.47;;
50104;SDS011;47690;39.202;-77.198;2022-12-07T00:34:28;5.63;;;4.57;;
50104;SDS011;47690;39.202;-77.198;2022-12-07T00:36:57;6.50;;;4.45;;
50104;SDS011;47690;39.202;-77.198;2022-12-07T00:39:29;4.85;;;4.28;;
50104;SDS011;47690;39.202;-77.198;2022-12-07T00:41:58;5.85;;;4.38;;
50104;SDS011;47690;39.202;-77.198;2022-12-07T00:44:28;6.00;;;4.75;;
50104;SDS011;47690;39.202;-77.198;2022-12-07T00:46:57;5.97;;;4.18;;
50104;SDS011;47690;39.202;-77.198;2022-12-07T00:49:27;6.00;;;4.47;;
50104;SDS011;47690;39.202;-77.198;2022-12-07T00:51:56;5.80;;;4.40;;
50104;SDS011;47690;39.202;-77.198;2022-12-07T00:54:25;6.15;;;4.53;;
50104;SDS011;47690;39.202;-77.198;2022-12-07T00:56:55;5.32;;;4.53;;
50104;SDS011;47690;39.202;-77.198;2022-12-07T00:59:25;6.32;;;5.25;;
50104;SDS011;47690;39.202;-77.198;2022-12-07T01:01:56;5.80;;;4.75;;
50104;SDS011;47690;39.202;-77.198;2022-12-07T01:04:28;5.78;;;4.63;;
50104;SDS011;47690;39.202;-77.198;2022-12-07T01:06:57;6.50;;;5.07;;
50104;SDS011;47690;39.202;-77.198;2022-12-07T01:09:28;5.25;;;4.47;;
50104;SDS011;47690;39.202;-77.198;2022-12-07T01:11:57;5.95;;;4.85;;
50104;SDS011;47690;39.202;-77.198;2022-12-07T01:14:27;5.93;;;5.10;;
50104;SDS011;47690;39.202;-77.198;2022-12-07T01:16:56;5.40;;;4.30;;
50104;SDS011;47690;39.202;-77.198;2022-12-07T01:19:25;5.00;;;4.50;;
50104;SDS011;47690;39.202;-77.198;2022-12-07T01:21:56;5.47;;;4.47;;
50104;SDS011;47690;39.202;-77.198;2022-12-07T01:24:27;5.47;;;4.55;;
50104;SDS011;47690;39.202;-77.198;2022-12-07T01:26:56;6.07;;;5.00;;
50104;SDS011;47690;39.202;-77.198;2022-12-07T01:29:25;5.82;;;4.45;;
50104;SDS011;47690;39.202;-77.198;2022-12-07T01:31:55;4.88;;;4.28;;
50104;SDS011;47690;39.202;-77.198;2022-12-07T01:34:27;5.63;;;4.50;;
50104;SDS011;47690;39.202;-77.198;2022-12-07T01:36:57;7.10;;;5.43;;
50104;SDS011;47690;39.202;-77.198;2022-12-07T01:39:28;7.65;;;4.63;;
50104;SDS011;47690;39.202;-77.198;2022-12-07T01:41:57;5.75;;;4.85;;
50104;SDS011;47690;39.202;-77.198;2022-12-07T01:44:31;5.60;;;4.30;;
50104;SDS011;47690;39.202;-77.198;2022-12-07T01:47:04;5.05;;;4.28;;
50104;SDS011;47690;39.202;-77.198;2022-12-07T01:52:17;6.20;;;4.50;;
50104;SDS011;47690;39.202;-77.198;2022-12-07T01:54:58;6.20;;;5.00;;
50104;SDS011;47690;39.202;-77.198;2022-12-07T01:57:30;6.82;;;5.07;;
50104;SDS011;47690;39.202;-77.198;2022-12-07T02:02:45;4.38;;;3.67;;
50104;SDS011;47690;39.202;-77.198;2022-12-07T02:05:27;6.28;;;4.53;;
50104;SDS011;47690;39.202;-77.198;2022-12-07T02:07:57;5.05;;;4.18;;
50104;SDS011;47690;39.202;-77.198;2022-12-07T02:10:28;5.90;;;4.32;;
50104;SDS011;47690;39.202;-77.198;2022-12-07T02:13:14;5.80;;;4.70;;
50104;SDS011;47690;39.202;-77.198;2022-12-07T02:25:09;5.97;;;4.53;;
50104;SDS011;47690;39.202;-77.198;2022-12-07T02:30:57;5.13;;;4.35;;
50104;SDS011;47690;39.202;-77.198;2022-12-07T02:33:41;5.80;;;4.10;;
50104;SDS011;47690;39.202;-77.198;2022-12-07T02:41:55;5.28;;;4.10;;
50104;SDS011;47690;39.202;-77.198;2022-12-07T02:44:31;5.85;;;4.07;;
50104;SDS011;47690;39.202;-77.198;2022-12-07T02:47:05;5.97;;;4.60;;
50104;SDS011;47690;39.202;-77.198;2022-12-07T02:52:08;4.00;;;3.47;;
50104;SDS011;47690;39.202;-77.198;2022-12-07T02:54:37;5.28;;;4.15;;
50104;SDS011;47690;39.202;-77.198;2022-12-07T02:57:11;5.68;;;4.15;;
50104;SDS011;47690;39.202;-77.198;2022-12-07T03:00:10;5.70;;;4.05;;
50104;SDS011;47690;39.202;-77.198;2022-12-07T03:05:52;4.93;;;3.97;;
50104;SDS011;47690;39.202;-77.198;2022-12-07T03:08:44;5.30;;;4.43;;
50104;SDS011;47690;39.202;-77.198;2022-12-07T03:11:25;5.35;;;4.28;;
50104;SDS011;47690;39.202;-77.198;2022-12-07T03:14:09;4.15;;;3.55;;
50104;SDS011;47690;39.202;-77.198;2022-12-07T03:16:49;4.22;;;3.55;;
50104;SDS011;47690;39.202;-77.198;2022-12-07T03:19:28;4.60;;;4.05;;
50104;SDS011;47690;39.202;-77.198;2022-12-07T03:22:02;5.05;;;3.95;;
50104;SDS011;47690;39.202;-77.198;2022-12-07T03:27:31;5.13;;;3.92;;
50104;SDS011;47690;39.202;-77.198;2022-12-07T03:30:05;4.90;;;3.80;;
50104;SDS011;47690;39.202;-77.198;2022-12-07T03:35:25;5.68;;;4.13;;
50104;SDS011;47690;39.202;-77.198;2022-12-07T03:38:17;4.78;;;3.90;;
50104;SDS011;47690;39.202;-77.198;2022-12-07T03:40:58;5.50;;;3.90;;
50104;SDS011;47690;39.202;-77.198;2022-12-07T03:43:33;5.07;;;3.85;;
50104;SDS011;47690;39.202;-77.198;2022-12-07T03:46:08;4.28;;;3.70;;
50104;SDS011;47690;39.202;-77.198;2022-12-07T03:51:30;4.93;;;3.85;;
50104;SDS011;47690;39.202;-77.198;2022-12-07T03:57:00;4.78;;;3.83;;
50104;SDS011;47690;39.202;-77.198;2022-12-07T03:59:35;4.13;;;3.45;;
50104;SDS011;47690;39.202;-77.198;2022-12-07T04:02:06;4.63;;;3.80;;
50104;SDS011;47690;39.202;-77.198;2022-12-07T04:04:39;4.47;;;3.90;;
50104;SDS011;47690;39.202;-77.198;2022-12-07T04:07:09;4.38;;;3.58;;
50104;SDS011;47690;39.202;-77.198;2022-12-07T04:09:39;4.82;;;3.92;;
50104;SDS011;47690;39.202;-77.198;2022-12-07T04:12:09;4.13;;;3.65;;
50104;SDS011;47690;39.202;-77.198;2022-12-07T04:14:37;5.15;;;3.97;;
50104;SDS011;47690;39.202;-77.198;2022-12-07T04:17:08;4.35;;;3.63;;
50104;SDS011;47690;39.202;-77.198;2022-12-07T04:19:38;4.70;;;3.53;;
50104;SDS011;47690;39.202;-77.198;2022-12-07T04:22:08;4.88;;;3.53;;
50104;SDS011;47690;39.202;-77.198;2022-12-07T04:24:37;4.07;;;3.50;;
50104;SDS011;47690;39.202;-77.198;2022-12-07T04:27:08;4.38;;;3.70;;
50104;SDS011;47690;39.202;-77.198;2022-12-07T04:29:37;4.15;;;3.75;;
50104;SDS011;47690;39.202;-77.198;2022-12-07T04:32:07;3.80;;;3.35;;
50104;SDS011;47690;39.202;-77.198;2022-12-07T04:34:36;4.43;;;3.22;;
50104;SDS011;47690;39.202;-77.198;2022-12-07T04:37:05;4.75;;;3.38;;
50104;SDS011;47690;39.202;-77.198;2022-12-07T04:39:37;4.00;;;3.50;;
50104;SDS011;47690;39.202;-77.198;2022-12-07T04:42:07;3.38;;;3.08;;
50104;SDS011;47690;39.202;-77.198;2022-12-07T04:44:37;4.10;;;3.38;;
50104;SDS011;47690;39.202;-77.198;2022-12-07T04:47:07;4.45;;;3.47;;
50104;SDS011;47690;39.202;-77.198;2022-12-07T04:49:36;3.72;;;3.35;;
50104;SDS011;47690;39.202;-77.198;2022-12-07T04:52:05;4.00;;;3.30;;
50104;SDS011;47690;39.202;-77.198;2022-12-07T04:54:35;3.63;;;3.28;;
50104;SDS011;47690;39.202;-77.198;2022-12-07T04:57:04;3.53;;;3.13;;
50104;SDS011;47690;39.202;-77.198;2022-12-07T04:59:33;5.13;;;3.17;;
50104;SDS011;47690;39.202;-77.198;2022-12-07T05:02:10;3.45;;;3.15;;
50104;SDS011;47690;39.202;-77.198;2022-12-07T05:04:39;3.92;;;3.47;;
50104;SDS011;47690;39.202;-77.198;2022-12-07T05:07:08;3.50;;;3.13;;
50104;SDS011;47690;39.202;-77.198;2022-12-07T05:09:37;4.13;;;3.33;;
50104;SDS011;47690;39.202;-77.198;2022-12-07T05:12:07;3.45;;;3.05;;
50104;SDS011;47690;39.202;-77.198;2022-12-07T05:14:37;3.92;;;3.20;;
50104;SDS011;47690;39.202;-77.198;2022-12-07T05:17:07;3.83;;;3.25;;
50104;SDS011;47690;39.202;-77.198;2022-12-07T05:19:37;4.10;;;3.40;;
50104;SDS011;47690;39.202;-77.198;2022-12-07T05:22:06;4.15;;;3.33;;
50104;SDS011;47690;39.202;-77.198;2022-12-07T05:24:35;3.90;;;3.25;;
50104;SDS011;47690;39.202;-77.198;2022-12-07T05:27:05;3.53;;;3.20;;
50104;SDS011;47690;39.202;-77.198;2022-12-07T05:29:36;4.57;;;3.20;;
50104;SDS011;47690;39.202;-77.198;2022-12-07T05:32:05;4.72;;;3.25;;
50104;SDS011;47690;39.202;-77.198;2022-12-07T05:34:35;4.15;;;3.75;;
50104;SDS011;47690;39.202;-77.198;2022-12-07T05:37:04;3.85;;;3.13;;
50104;SDS011;47690;39.202;-77.198;2022-12-07T05:39:33;3.42;;;3.08;;
50104;SDS011;47690;39.202;-77.198;2022-12-07T05:42:03;4.03;;;3.47;;
50104;SDS011;47690;39.202;-77.198;2022-12-07T05:44:44;3.15;;;2.75;;
50104;SDS011;47690;39.202;-77.198;2022-12-07T05:47:16;4.28;;;3.17;;
50104;SDS011;47690;39.202;-77.198;2022-12-07T05:49:46;4.15;;;3.40;;
50104;SDS011;47690;39.202;-77.198;2022-12-07T05:52:17;4.10;;;2.85;;
50104;SDS011;47690;39.202;-77.198;2022-12-07T05:54:49;3.17;;;2.88;;
50104;SDS011;47690;39.202;-77.198;2022-12-07T05:57:20;3.42;;;3.13;;
50104;SDS011;47690;39.202;-77.198;2022-12-07T05:59:49;4.25;;;3.15;;
50104;SDS011;47690;39.202;-77.198;2022-12-07T06:02:18;3.65;;;3.30;;
50104;SDS011;47690;39.202;-77.198;2022-12-07T06:04:48;3.67;;;3.22;;
50104;SDS011;47690;39.202;-77.198;2022-12-07T06:07:17;4.68;;;3.20;;
50104;SDS011;47690;39.202;-77.198;2022-12-07T06:09:47;3.35;;;2.97;;
50104;SDS011;47690;39.202;-77.198;2022-12-07T06:12:16;3.47;;;3.17;;
50104;SDS011;47690;39.202;-77.198;2022-12-07T06:15:05;3.38;;;3.08;;
50104;SDS011;47690;39.202;-77.198;2022-12-07T06:17:35;4.90;;;3.58;;
50104;SDS011;47690;39.202;-77.198;2022-12-07T06:20:05;3.28;;;2.95;;
50104;SDS011;47690;39.202;-77.198;2022-12-07T06:22:35;3.75;;;3.35;;
50104;SDS011;47690;39.202;-77.198;2022-12-07T06:25:04;3.47;;;2.97;;
50104;SDS011;47690;39.202;-77.198;2022-12-07T06:27:35;3.50;;;3.15;;
50104;SDS011;47690;39.202;-77.198;2022-12-07T06:30:05;3.47;;;3.15;;
50104;SDS011;47690;39.202;-77.198;2022-12-07T06:32:37;4.35;;;3.33;;
50104;SDS011;47690;39.202;-77.198;2022-12-07T06:35:05;3.90;;;3.47;;
50104;SDS011;47690;39.202;-77.198;2022-12-07T06:37:35;5.35;;;3.53;;
50104;SDS011;47690;39.202;-77.198;2022-12-07T06:40:05;4.53;;;3.50;;
50104;SDS011;47690;39.202;-77.198;2022-12-07T06:42:35;4.15;;;3.33;;
50104;SDS011;47690;39.202;-77.198;2022-12-07T06:45:05;3.50;;;3.20;;
50104;SDS011;47690;39.202;-77.198;2022-12-07T06:47:36;3.63;;;2.95;;
50104;SDS011;47690;39.202;-77.198;2022-12-07T06:50:09;3.92;;;3.33;;
50104;SDS011;47690;39.202;-77.198;2022-12-07T06:52:39;3.75;;;3.28;;
50104;SDS011;47690;39.202;-77.198;2022-12-07T06:55:12;4.57;;;3.30;;
50104;SDS011;47690;39.202;-77.198;2022-12-07T06:57:55;3.53;;;3.08;;
50104;SDS011;47690;39.202;-77.198;2022-12-07T07:00:31;4.57;;;3.35;;
50104;SDS011;47690;39.202;-77.198;2022-12-07T07:03:00;4.50;;;3.30;;
50104;SDS011;47690;39.202;-77.198;2022-12-07T07:05:29;4.07;;;3.45;;
50104;SDS011;47690;39.202;-77.198;2022-12-07T07:08:08;4.20;;;3.42;;
50104;SDS011;47690;39.202;-77.198;2022-12-07T07:10:53;3.70;;;3.38;;
50104;SDS011;47690;39.202;-77.198;2022-12-07T07:13:23;3.47;;;3.08;;
50104;SDS011;47690;39.202;-77.198;2022-12-07T07:15:53;4.47;;;3.13;;
50104;SDS011;47690;39.202;-77.198;2022-12-07T07:18:26;3.92;;;3.50;;
50104;SDS011;47690;39.202;-77.198;2022-12-07T07:20:56;3.65;;;3.20;;
50104;SDS011;47690;39.202;-77.198;2022-12-07T07:23:26;3.42;;;3.13;;
50104;SDS011;47690;39.202;-77.198;2022-12-07T07:25:56;4.47;;;3.15;;
50104;SDS011;47690;39.202;-77.198;2022-12-07T07:28:26;5.28;;;3.38;;
50104;SDS011;47690;39.202;-77.198;2022-12-07T07:30:55;4.65;;;3.20;;
50104;SDS011;47690;39.202;-77.198;2022-12-07T07:33:25;3.65;;;3.00;;
50104;SDS011;47690;39.202;-77.198;2022-12-07T07:35:55;4.13;;;3.72;;
50104;SDS011;47690;39.202;-77.198;2022-12-07T07:38:24;4.15;;;3.55;;
50104;SDS011;47690;39.202;-77.198;2022-12-07T07:40:55;4.07;;;3.63;;
50104;SDS011;47690;39.202;-77.198;2022-12-07T07:43:28;4.32;;;3.50;;
50104;SDS011;47690;39.202;-77.198;2022-12-07T07:46:03;3.90;;;3.50;;
50104;SDS011;47690;39.202;-77.198;2022-12-07T07:48:32;4.25;;;3.55;;
50104;SDS011;47690;39.202;-77.198;2022-12-07T07:51:04;3.60;;;3.08;;
50104;SDS011;47690;39.202;-77.198;2022-12-07T07:53:35;3.38;;;3.08;;
50104;SDS011;47690;39.202;-77.198;2022-12-07T07:56:05;4.53;;;3.60;;
50104;SDS011;47690;39.202;-77.198;2022-12-07T07:58:34;3.83;;;3.30;;
50104;SDS011;47690;39.202;-77.198;2022-12-07T08:01:05;3.88;;;3.47;;
50104;SDS011;47690;39.202;-77.198;2022-12-07T08:03:35;3.53;;;3.22;;
50104;SDS011;47690;39.202;-77.198;2022-12-07T08:06:04;3.45;;;3.15;;
50104;SDS011;47690;39.202;-77.198;2022-12-07T08:08:33;4.45;;;3.70;;
50104;SDS011;47690;39.202;-77.198;2022-12-07T08:11:07;3.95;;;3.38;;
50104;SDS011;47690;39.202;-77.198;2022-12-07T08:13:37;5.03;;;3.42;;
50104;SDS011;47690;39.202;-77.198;2022-12-07T08:16:08;4.15;;;3.55;;
50104;SDS011;47690;39.202;-77.198;2022-12-07T08:18:39;3.85;;;3.45;;
50104;SDS011;47690;39.202;-77.198;2022-12-07T08:21:10;3.80;;;3.40;;
50104;SDS011;47690;39.202;-77.198;2022-12-07T08:23:41;5.13;;;3.15;;
50104;SDS011;47690;39.202;-77.198;2022-12-07T08:26:12;3.20;;;2.90;;
50104;SDS011;47690;39.202;-77.198;2022-12-07T08:28:43;3.28;;;2.97;;
50104;SDS011;47690;39.202;-77.198;2022-12-07T08:31:15;5.85;;;3.47;;
50104;SDS011;47690;39.202;-77.198;2022-12-07T08:33:46;4.32;;;3.42;;
50104;SDS011;47690;39.202;-77.198;2022-12-07T08:36:16;4.10;;;3.38;;
50104;SDS011;47690;39.202;-77.198;2022-12-07T08:38:45;3.38;;;3.08;;
50104;SDS011;47690;39.202;-77.198;2022-12-07T08:41:34;4.00;;;3.05;;
50104;SDS011;47690;39.202;-77.198;2022-12-07T08:44:04;3.28;;;2.88;;
50104;SDS011;47690;39.202;-77.198;2022-12-07T08:49:10;4.75;;;3.05;;
50104;SDS011;47690;39.202;-77.198;2022-12-07T08:51:42;3.88;;;3.03;;
50104;SDS011;47690;39.202;-77.198;2022-12-07T08:54:12;3.75;;;3.20;;
50104;SDS011;47690;39.202;-77.198;2022-12-07T08:56:45;3.78;;;3.20;;
50104;SDS011;47690;39.202;-77.198;2022-12-07T08:59:23;3.60;;;3.22;;
50104;SDS011;47690;39.202;-77.198;2022-12-07T09:01:53;3.47;;;3.08;;
50104;SDS011;47690;39.202;-77.198;2022-12-07T09:04:21;3.45;;;3.15;;
50104;SDS011;47690;39.202;-77.198;2022-12-07T09:06:52;3.80;;;3.40;;
50104;SDS011;47690;39.202;-77.198;2022-12-07T09:09:24;4.53;;;3.35;;
50104;SDS011;47690;39.202;-77.198;2022-12-07T09:11:56;3.50;;;3.20;;
50104;SDS011;47690;39.202;-77.198;2022-12-07T09:14:25;3.90;;;3.25;;
50104;SDS011;47690;39.202;-77.198;2022-12-07T09:17:04;5.43;;;3.35;;
50104;SDS011;47690;39.202;-77.198;2022-12-07T09:19:37;5.20;;;3.63;;
50104;SDS011;47690;39.202;-77.198;2022-12-07T09:22:06;3.83;;;3.13;;
50104;SDS011;47690;39.202;-77.198;2022-12-07T09:24:36;4.38;;;3.67;;
50104;SDS011;47690;39.202;-77.198;2022-12-07T09:27:05;5.25;;;3.65;;
50104;SDS011;47690;39.202;-77.198;2022-12-07T09:29:33;4.80;;;3.97;;
50104;SDS011;47690;39.202;-77.198;2022-12-07T09:32:02;4.97;;;3.70;;
50104;SDS011;47690;39.202;-77.198;2022-12-07T09:34:37;6.40;;;3.75;;
50104;SDS011;47690;39.202;-77.198;2022-12-07T09:37:10;4.65;;;3.53;;
50104;SDS011;47690;39.202;-77.198;2022-12-07T09:39:39;6.97;;;3.28;;
50104;SDS011;47690;39.202;-77.198;2022-12-07T09:42:32;4.10;;;3.47;;
50104;SDS011;47690;39.202;-77.198;2022-12-07T09:45:07;4.68;;;3.60;;
50104;SDS011;47690;39.202;-77.198;2022-12-07T09:47:43;3.80;;;3.40;;
50104;SDS011;47690;39.202;-77.198;2022-12-07T09:50:14;3.85;;;3.45;;
50104;SDS011;47690;39.202;-77.198;2022-12-07T09:52:46;6.63;;;3.70;;
50104;SDS011;47690;39.202;-77.198;2022-12-07T09:55:24;4.75;;;3.67;;
50104;SDS011;47690;39.202;-77.198;2022-12-07T09:57:57;4.72;;;4.03;;
50104;SDS011;47690;39.202;-77.198;2022-12-07T10:00:27;6.68;;;4.13;;
50104;SDS011;47690;39.202;-77.198;2022-12-07T10:02:58;7.60;;;4.47;;
50104;SDS011;47690;39.202;-77.198;2022-12-07T10:05:40;6.43;;;4.65;;
50104;SDS011;47690;39.202;-77.198;2022-12-07T10:08:13;6.88;;;4.53;;
50104;SDS011;47690;39.202;-77.198;2022-12-07T10:10:52;6.22;;;4.22;;
50104;SDS011;47690;39.202;-77.198;2022-12-07T10:13:35;6.53;;;4.15;;
50104;SDS011;47690;39.202;-77.198;2022-12-07T10:16:27;4.68;;;3.60;;
50104;SDS011;47690;39.202;-77.198;2022-12-07T10:19:18;6.53;;;4.03;;
50104;SDS011;47690;39.202;-77.198;2022-12-07T10:22:07;6.32;;;4.00;;
50104;SDS011;47690;39.202;-77.198;2022-12-07T10:24:38;5.18;;;3.85;;
50104;SDS011;47690;39.202;-77.198;2022-12-07T10:27:30;6.05;;;4.03;;
50104;SDS011;47690;39.202;-77.198;2022-12-07T10:30:01;6.30;;;3.70;;
50104;SDS011;47690;39.202;-77.198;2022-12-07T10:32:37;5.68;;;3.95;;
50104;SDS011;47690;39.202;-77.198;2022-12-07T10:35:20;5.25;;;4.03;;
50104;SDS011;47690;39.202;-77.198;2022-12-07T10:37:54;5.82;;;3.85;;
50104;SDS011;47690;39.202;-77.198;2022-12-07T10:40:31;5.78;;;4.03;;
50104;SDS011;47690;39.202;-77.198;2022-12-07T10:48:59;6.95;;;3.63;;
50104;SDS011;47690;39.202;-77.198;2022-12-07T11:12:47;5.05;;;4.10;;
50104;SDS011;47690;39.202;-77.198;2022-12-07T11:15:36;6.68;;;4.22;;
50104;SDS011;47690;39.202;-77.198;2022-12-07T11:37:47;6.10;;;3.95;;
50104;SDS011;47690;39.202;-77.198;2022-12-07T11:40:24;6.53;;;4.28;;
50104;SDS011;47690;39.202;-77.198;2022-12-07T11:43:25;6.68;;;4.35;;
50104;SDS011;47690;39.202;-77.198;2022-12-07T11:46:06;6.85;;;4.28;;
50104;SDS011;47690;39.202;-77.198;2022-12-07T11:51:22;6.95;;;4.15;;
50104;SDS011;47690;39.202;-77.198;2022-12-07T11:54:02;6.72;;;4.28;;
50104;SDS011;47690;39.202;-77.198;2022-12-07T11:56:45;6.95;;;4.50;;
50104;SDS011;47690;39.202;-77.198;2022-12-07T12:02:14;6.95;;;4.32;;
50104;SDS011;47690;39.202;-77.198;2022-12-07T12:05:34;6.10;;;4.53;;
50104;SDS011;47690;39.202;-77.198;2022-12-07T12:08:04;7.53;;;4.38;;
50104;SDS011;47690;39.202;-77.198;2022-12-07T12:22:40;7.07;;;4.55;;
50104;SDS011;47690;39.202;-77.198;2022-12-07T12:25:36;8.07;;;4.38;;
50104;SDS011;47690;39.202;-77.198;2022-12-07T12:28:17;6.25;;;3.95;;
50104;SDS011;47690;39.202;-77.198;2022-12-07T12:31:13;6.53;;;4.00;;
50104;SDS011;47690;39.202;-77.198;2022-12-07T12:33:52;7.90;;;4.45;;
50104;SDS011;47690;39.202;-77.198;2022-12-07T12:36:26;6.22;;;4.15;;
50104;SDS011;47690;39.202;-77.198;2022-12-07T12:51:54;6.93;;;4.32;;
50104;SDS011;47690;39.202;-77.198;2022-12-07T12:54:29;5.93;;;3.70;;
50104;SDS011;47690;39.202;-77.198;2022-12-07T13:00:00;6.57;;;4.05;;
50104;SDS011;47690;39.202;-77.198;2022-12-07T13:03:04;6.07;;;4.03;;
50104;SDS011;47690;39.202;-77.198;2022-12-07T13:05:28;6.88;;;4.07;;
50104;SDS011;47690;39.202;-77.198;2022-12-07T13:10:47;6.38;;;4.25;;
50104;SDS011;47690;39.202;-77.198;2022-12-07T13:15:48;7.80;;;4.20;;
50104;SDS011;47690;39.202;-77.198;2022-12-07T13:31:49;8.88;;;4.28;;
50104;SDS011;47690;39.202;-77.198;2022-12-07T13:37:15;6.05;;;3.72;;
50104;SDS011;47690;39.202;-77.198;2022-12-07T13:39:50;6.87;;;3.90;;
50104;SDS011;47690;39.202;-77.198;2022-12-07T13:44:58;6.97;;;4.13;;
50104;SDS011;47690;39.202;-77.198;2022-12-07T13:52:58;6.95;;;4.07;;
50104;SDS011;47690;39.202;-77.198;2022-12-07T13:55:28;7.30;;;4.40;;
50104;SDS011;47690;39.202;-77.198;2022-12-07T13:57:58;8.23;;;4.32;;
50104;SDS011;47690;39.202;-77.198;2022-12-07T14:00:28;6.63;;;4.35;;
50104;SDS011;47690;39.202;-77.198;2022-12-07T14:05:41;6.78;;;4.07;;
50104;SDS011;47690;39.202;-77.198;2022-12-07T14:13:30;7.28;;;4.47;;
50104;SDS011;47690;39.202;-77.198;2022-12-07T14:16:04;6.97;;;4.13;;
50104;SDS011;47690;39.202;-77.198;2022-12-07T14:18:57;5.90;;;3.75;;
50104;SDS011;47690;39.202;-77.198;2022-12-07T14:21:28;6.65;;;3.88;;
50104;SDS011;47690;39.202;-77.198;2022-12-07T14:24:14;7.93;;;4.57;;
50104;SDS011;47690;39.202;-77.198;2022-12-07T14:26:48;7.38;;;3.97;;
50104;SDS011;47690;39.202;-77.198;2022-12-07T14:34:53;6.57;;;4.22;;
50104;SDS011;47690;39.202;-77.198;2022-12-07T14:37:28;7.80;;;4.32;;
50104;SDS011;47690;39.202;-77.198;2022-12-07T14:39:57;7.50;;;4.50;;
50104;SDS011;47690;39.202;-77.198;2022-12-07T14:42:28;8.93;;;4.90;;
50104;SDS011;47690;39.202;-77.198;2022-12-07T14:45:00;7.82;;;4.78;;
50104;SDS011;47690;39.202;-77.198;2022-12-07T14:47:29;9.50;;;5.32;;
50104;SDS011;47690;39.202;-77.198;2022-12-07T14:50:19;7.95;;;4.85;;
50104;SDS011;47690;39.202;-77.198;2022-12-07T14:52:56;9.57;;;5.35;;
50104;SDS011;47690;39.202;-77.198;2022-12-07T14:55:52;7.57;;;4.70;;
50104;SDS011;47690;39.202;-77.198;2022-12-07T14:58:21;7.95;;;4.75;;
50104;SDS011;47690;39.202;-77.198;2022-12-07T15:00:51;7.95;;;5.25;;
50104;SDS011;47690;39.202;-77.198;2022-12-07T15:03:20;7.57;;;5.20;;
50104;SDS011;47690;39.202;-77.198;2022-12-07T15:05:49;9.60;;;5.53;;
50104;SDS011;47690;39.202;-77.198;2022-12-07T15:08:20;7.88;;;5.28;;
50104;SDS011;47690;39.202;-77.198;2022-12-07T15:10:49;9.30;;;5.25;;
50104;SDS011;47690;39.202;-77.198;2022-12-07T15:13:18;6.95;;;5.05;;
50104;SDS011;47690;39.202;-77.198;2022-12-07T15:16:10;7.40;;;4.70;;
50104;SDS011;47690;39.202;-77.198;2022-12-07T15:18:45;6.38;;;4.63;;
50104;SDS011;47690;39.202;-77.198;2022-12-07T15:21:33;4.97;;;3.83;;
50104;SDS011;47690;39.202;-77.198;2022-12-07T15:24:03;5.53;;;4.30;;
50104;SDS011;47690;39.202;-77.198;2022-12-07T15:26:32;6.72;;;4.85;;
50104;SDS011;47690;39.202;-77.198;2022-12-07T15:29:04;6.90;;;4.78;;
50104;SDS011;47690;39.202;-77.198;2022-12-07T15:31:37;6.32;;;4.45;;
50104;SDS011;47690;39.202;-77.198;2022-12-07T15:34:23;5.85;;;4.30;;
50104;SDS011;47690;39.202;-77.198;2022-12-07T15:37:06;6.88;;;4.32;;
50104;SDS011;47690;39.202;-77.198;2022-12-07T15:39:36;6.00;;;4.05;;
50104;SDS011;47690;39.202;-77.198;2022-12-07T15:42:05;4.75;;;3.90;;
50104;SDS011;47690;39.202;-77.198;2022-12-07T15:44:34;5.70;;;4.22;;
50104;SDS011;47690;39.202;-77.198;2022-12-07T15:47:23;4.20;;;3.50;;
50104;SDS011;47690;39.202;-77.198;2022-12-07T15:49:53;5.00;;;4.00;;
50104;SDS011;47690;39.202;-77.198;2022-12-07T15:52:26;4.60;;;3.70;;
50104;SDS011;47690;39.202;-77.198;2022-12-07T15:54:57;4.07;;;3.67;;
50104;SDS011;47690;39.202;-77.198;2022-12-07T15:57:29;4.30;;;3.65;;
50104;SDS011;47690;39.202;-77.198;2022-12-07T15:59:59;4.40;;;3.88;;
50104;SDS011;47690;39.202;-77.198;2022-12-07T16:02:29;4.32;;;3.83;;
50104;SDS011;47690;39.202;-77.198;2022-12-07T16:05:06;4.45;;;3.75;;
50104;SDS011;47690;39.202;-77.198;2022-12-07T16:07:35;4.20;;;3.45;;
50104;SDS011;47690;39.202;-77.198;2022-12-07T16:10:05;4.68;;;3.85;;
50104;SDS011;47690;39.202;-77.198;2022-12-07T16:12:34;4.75;;;4.13;;
50104;SDS011;47690;39.202;-77.198;2022-12-07T16:15:03;3.97;;;3.55;;
50104;SDS011;47690;39.202;-77.198;2022-12-07T16:17:33;3.90;;;3.42;;
50104;SDS011;47690;39.202;-77.198;2022-12-07T16:20:01;4.38;;;3.60;;
50104;SDS011;47690;39.202;-77.198;2022-12-07T16:22:33;4.28;;;3.75;;
50104;SDS011;47690;39.202;-77.198;2022-12-07T16:25:02;4.07;;;3.47;;
50104;SDS011;47690;39.202;-77.198;2022-12-07T16:27:32;4.90;;;3.45;;
50104;SDS011;47690;39.202;-77.198;2022-12-07T16:30:01;4.95;;;3.85;;
50104;SDS011;47690;39.202;-77.198;2022-12-07T16:32:32;5.78;;;4.18;;
50104;SDS011;47690;39.202;-77.198;2022-12-07T16:35:01;4.22;;;3.78;;
50104;SDS011;47690;39.202;-77.198;2022-12-07T16:37:33;4.18;;;3.67;;
50104;SDS011;47690;39.202;-77.198;2022-12-07T16:40:03;4.40;;;3.58;;
50104;SDS011;47690;39.202;-77.198;2022-12-07T16:42:33;4.40;;;3.72;;
50104;SDS011;47690;39.202;-77.198;2022-12-07T16:45:04;4.45;;;3.63;;
50104;SDS011;47690;39.202;-77.198;2022-12-07T16:47:36;5.28;;;3.33;;
50104;SDS011;47690;39.202;-77.198;2022-12-07T16:50:07;4.55;;;3.58;;
50104;SDS011;47690;39.202;-77.198;2022-12-07T16:52:36;4.35;;;3.80;;
50104;SDS011;47690;39.202;-77.198;2022-12-07T16:55:05;4.47;;;3.60;;
50104;SDS011;47690;39.202;-77.198;2022-12-07T16:57:35;4.40;;;3.70;;
50104;SDS011;47690;39.202;-77.198;2022-12-07T17:00:05;3.95;;;3.50;;
50104;SDS011;47690;39.202;-77.198;2022-12-07T17:02:35;4.38;;;3.67;;
50104;SDS011;47690;39.202;-77.198;2022-12-07T17:05:04;3.90;;;3.50;;
50104;SDS011;47690;39.202;-77.198;2022-12-07T17:07:33;4.13;;;3.72;;
50104;SDS011;47690;39.202;-77.198;2022-12-07T17:10:03;4.55;;;3.90;;
50104;SDS011;47690;39.202;-77.198;2022-12-07T17:12:33;3.80;;;3.40;;
50104;SDS011;47690;39.202;-77.198;2022-12-07T17:15:02;4.60;;;3.97;;
50104;SDS011;47690;39.202;-77.198;2022-12-07T17:17:56;5.15;;;3.42;;
50104;SDS011;47690;39.202;-77.198;2022-12-07T17:20:27;4.30;;;3.65;;
50104;SDS011;47690;39.202;-77.198;2022-12-07T17:22:56;4.38;;;3.35;;
50104;SDS011;47690;39.202;-77.198;2022-12-07T17:25:26;4.82;;;3.65;;
50104;SDS011;47690;39.202;-77.198;2022-12-07T17:27:56;3.80;;;3.28;;
50104;SDS011;47690;39.202;-77.198;2022-12-07T17:30:25;4.47;;;3.58;;
50104;SDS011;47690;39.202;-77.198;2022-12-07T17:32:56;5.45;;;3.75;;
50104;SDS011;47690;39.202;-77.198;2022-12-07T17:35:25;3.88;;;3.50;;
50104;SDS011;47690;39.202;-77.198;2022-12-07T17:37:58;3.40;;;3.05;;
50104;SDS011;47690;39.202;-77.198;2022-12-07T17:40:33;5.90;;;3.40;;
50104;SDS011;47690;39.202;-77.198;2022-12-07T17:43:03;3.75;;;3.33;;